createdAt,value
2018-04-27T00:00:44.495Z,1014.23
2018-04-27T00:01:44.446Z,1014.20
2018-04-27T00:02:44.380Z,1014.25
2018-04-27T00:03:44.301Z,1014.26
2018-04-27T00:04:44.240Z,1014.23
2018-04-27T00:05:44.172Z,1014.28
2018-04-27T00:06:44.107Z,1014.30
2018-04-27T00:07:44.034Z,1014.24
2018-04-27T00:08:43.979Z,1014.25
2018-04-27T00:09:43.904Z,1014.26
2018-04-27T00:10:43.836Z,1014.33
2018-04-27T00:11:43.771Z,1014.40
2018-04-27T00:12:43.705Z,1014.43
2018-04-27T00:13:43.646Z,1014.45
2018-04-27T00:14:43.583Z,1014.44
2018-04-27T00:15:43.507Z,1014.49
2018-04-27T00:16:43.441Z,1014.45
2018-04-27T00:17:43.375Z,1014.45
2018-04-27T00:18:43.307Z,1014.42
2018-04-27T00:19:43.242Z,1014.40
2018-04-27T00:20:43.178Z,1014.42
2018-04-27T00:21:43.116Z,1014.42
2018-04-27T00:22:43.066Z,1014.40
2018-04-27T00:23:43.010Z,1014.38
2018-04-27T00:24:42.927Z,1014.35
2018-04-27T00:25:42.841Z,1014.34
2018-04-27T00:26:42.776Z,1014.36
2018-04-27T00:27:42.722Z,1014.38
2018-04-27T00:28:42.652Z,1014.37
2018-04-27T00:29:42.578Z,1014.36
2018-04-27T00:30:42.508Z,1014.46
2018-04-27T00:31:42.452Z,1014.42
2018-04-27T00:32:42.375Z,1014.40
2018-04-27T00:33:42.314Z,1014.47
2018-04-27T00:34:42.248Z,1014.42
2018-04-27T00:35:42.180Z,1014.39
2018-04-27T00:36:42.119Z,1014.38
2018-04-27T00:37:42.045Z,1014.35
2018-04-27T00:38:41.978Z,1014.39
2018-04-27T00:39:41.911Z,1014.35
2018-04-27T00:40:41.853Z,1014.34
2018-04-27T00:41:41.783Z,1014.31
2018-04-27T00:42:41.717Z,1014.37
2018-04-27T00:43:41.647Z,1014.35
2018-04-27T00:44:41.578Z,1014.31
2018-04-27T00:45:41.509Z,1014.32
2018-04-27T00:46:41.445Z,1014.32
2018-04-27T00:47:41.382Z,1014.31
2018-04-27T00:48:41.319Z,1014.31
2018-04-27T00:49:41.248Z,1014.34
2018-04-27T00:50:41.182Z,1014.28
2018-04-27T00:51:41.114Z,1014.28
2018-04-27T00:52:41.050Z,1014.24
2018-04-27T00:53:40.983Z,1014.21
2018-04-27T00:54:40.919Z,1014.26
2018-04-27T00:55:40.856Z,1014.24
2018-04-27T00:56:40.779Z,1014.17
2018-04-27T00:57:40.723Z,1014.20
2018-04-27T00:58:40.645Z,1014.17
2018-04-27T00:59:40.583Z,1014.17
2018-04-27T01:00:40.514Z,1014.19
2018-04-27T01:01:40.448Z,1014.18
2018-04-27T01:02:40.385Z,1014.21
2018-04-27T01:03:40.317Z,1014.20
2018-04-27T01:04:40.254Z,1014.21
2018-04-27T01:05:40.191Z,1014.21
2018-04-27T01:06:40.125Z,1014.26
2018-04-27T01:07:40.059Z,1014.28
2018-04-27T01:08:39.984Z,1014.26
2018-04-27T01:09:39.919Z,1014.28
2018-04-27T01:10:39.849Z,1014.24
2018-04-27T01:11:39.781Z,1014.24
2018-04-27T01:12:39.726Z,1014.19
2018-04-27T01:13:39.670Z,1014.20
2018-04-27T01:14:39.598Z,1014.13
2018-04-27T01:15:39.514Z,1014.17
2018-04-27T01:16:39.446Z,1014.19
2018-04-27T01:17:39.383Z,1014.19
2018-04-27T01:18:39.318Z,1014.23
2018-04-27T01:19:39.253Z,1014.18
2018-04-27T01:20:39.186Z,1014.19
2018-04-27T01:21:39.119Z,1014.19
2018-04-27T01:22:39.048Z,1014.21
2018-04-27T01:23:38.989Z,1014.21
2018-04-27T01:24:38.918Z,1014.21
2018-04-27T01:25:38.847Z,1014.17
2018-04-27T01:26:38.782Z,1014.15
2018-04-27T01:27:38.719Z,1014.19
2018-04-27T01:28:38.649Z,1014.20
2018-04-27T01:29:38.580Z,1014.20
2018-04-27T01:30:38.521Z,1014.19
2018-04-27T01:31:38.453Z,1014.18
2018-04-27T01:32:38.412Z,1014.22
2018-04-27T01:33:38.319Z,1014.23
2018-04-27T01:34:38.248Z,1014.20
2018-04-27T01:35:38.185Z,1014.21
2018-04-27T01:36:38.118Z,1014.18
2018-04-27T01:37:38.048Z,1014.21
2018-04-27T01:38:37.984Z,1014.23
2018-04-27T01:39:37.918Z,1014.20
2018-04-27T01:40:37.851Z,1014.20
2018-04-27T01:41:37.793Z,1014.14
2018-04-27T01:42:37.717Z,1014.17
2018-04-27T01:43:37.647Z,1014.20
2018-04-27T01:44:37.588Z,1014.19
2018-04-27T01:45:37.520Z,1014.21
2018-04-27T01:46:37.448Z,1014.23
2018-04-27T01:47:37.383Z,1014.19
2018-04-27T01:48:37.316Z,1014.26
2018-04-27T01:49:37.255Z,1014.30
2018-04-27T01:50:37.185Z,1014.25
2018-04-27T01:51:37.116Z,1014.28
2018-04-27T01:52:37.054Z,1014.28
2018-04-27T01:53:36.984Z,1014.33
2018-04-27T01:54:36.920Z,1014.29
2018-04-27T01:55:36.857Z,1014.30
2018-04-27T01:56:36.782Z,1014.21
2018-04-27T01:57:36.719Z,1014.27
2018-04-27T01:58:36.651Z,1014.28
2018-04-27T01:59:36.586Z,1014.23
2018-04-27T02:00:36.511Z,1014.25
2018-04-27T02:01:36.445Z,1014.25
2018-04-27T02:02:36.381Z,1014.22
2018-04-27T02:03:36.321Z,1014.23
2018-04-27T02:04:36.251Z,1014.25
2018-04-27T02:05:36.181Z,1014.20
2018-04-27T02:06:36.116Z,1014.23
2018-04-27T02:07:36.046Z,1014.20
2018-04-27T02:08:35.980Z,1014.21
2018-04-27T02:09:35.918Z,1014.19
2018-04-27T02:10:35.857Z,1014.16
2018-04-27T02:11:35.788Z,1014.16
2018-04-27T02:12:35.713Z,1014.20
2018-04-27T02:13:35.649Z,1014.17
2018-04-27T02:14:35.588Z,1014.21
2018-04-27T02:15:35.510Z,1014.20
2018-04-27T02:16:35.449Z,1014.23
2018-04-27T02:17:35.379Z,1014.19
2018-04-27T02:18:35.310Z,1014.21
2018-04-27T02:19:35.245Z,1014.18
2018-04-27T02:20:35.175Z,1014.18
2018-04-27T02:21:35.111Z,1014.19
2018-04-27T02:22:35.102Z,1014.16
2018-04-27T02:23:34.976Z,1014.17
2018-04-27T02:24:34.907Z,1014.16
2018-04-27T02:25:34.843Z,1014.17
2018-04-27T02:26:34.775Z,1014.13
2018-04-27T02:27:34.708Z,1014.14
2018-04-27T02:28:34.642Z,1014.18
2018-04-27T02:29:34.569Z,1014.18
2018-04-27T02:30:34.506Z,1014.21
2018-04-27T02:31:34.441Z,1014.18
2018-04-27T02:32:34.375Z,1014.16
2018-04-27T02:33:34.302Z,1014.21
2018-04-27T02:34:34.237Z,1014.15
2018-04-27T02:35:34.173Z,1014.11
2018-04-27T02:36:34.105Z,1014.14
2018-04-27T02:37:34.037Z,1014.17
2018-04-27T02:38:33.973Z,1014.12
2018-04-27T02:39:33.903Z,1014.12
2018-04-27T02:40:33.835Z,1014.11
2018-04-27T02:41:33.766Z,1014.21
2018-04-27T02:42:33.703Z,1014.17
2018-04-27T02:43:33.631Z,1014.17
2018-04-27T02:44:33.563Z,1014.13
2018-04-27T02:45:33.502Z,1014.13
2018-04-27T02:46:33.431Z,1014.15
2018-04-27T02:47:33.363Z,1014.13
2018-04-27T02:48:33.293Z,1014.11
2018-04-27T02:49:33.232Z,1014.14
2018-04-27T02:50:33.161Z,1014.17
2018-04-27T02:51:33.092Z,1014.11
2018-04-27T02:52:33.029Z,1014.13
2018-04-27T02:53:32.959Z,1014.12
2018-04-27T02:54:32.900Z,1014.19
2018-04-27T02:55:32.830Z,1014.18
2018-04-27T02:56:32.765Z,1014.19
2018-04-27T02:57:32.694Z,1014.19
2018-04-27T02:58:32.625Z,1014.16
2018-04-27T02:59:32.559Z,1014.12
2018-04-27T03:00:32.496Z,1014.14
2018-04-27T03:01:32.423Z,1014.14
2018-04-27T03:02:32.381Z,1014.08
2018-04-27T03:03:32.288Z,1014.11
2018-04-27T03:04:32.218Z,1014.11
2018-04-27T03:05:32.156Z,1014.10
2018-04-27T03:06:32.089Z,1014.07
2018-04-27T03:07:32.022Z,1014.10
2018-04-27T03:08:31.957Z,1014.05
2018-04-27T03:09:31.889Z,1014.07
2018-04-27T03:10:31.816Z,1014.10
2018-04-27T03:11:31.754Z,1014.08
2018-04-27T03:12:31.680Z,1014.12
2018-04-27T03:13:31.618Z,1014.10
2018-04-27T03:14:31.549Z,1014.10
2018-04-27T03:15:31.480Z,1014.13
2018-04-27T03:16:31.412Z,1014.09
2018-04-27T03:17:31.351Z,1014.17
2018-04-27T03:18:31.285Z,1014.15
2018-04-27T03:19:31.215Z,1014.13
2018-04-27T03:20:31.153Z,1014.11
2018-04-27T03:21:31.076Z,1014.08
2018-04-27T03:22:31.012Z,1014.10
2018-04-27T03:23:30.941Z,1014.12
2018-04-27T03:24:30.876Z,1014.14
2018-04-27T03:25:30.809Z,1014.08
2018-04-27T03:26:30.744Z,1014.08
2018-04-27T03:27:30.676Z,1014.07
2018-04-27T03:28:30.607Z,1014.06
2018-04-27T03:29:30.538Z,1014.06
2018-04-27T03:30:30.474Z,1014.03
2018-04-27T03:31:30.401Z,1014.09
2018-04-27T03:32:30.333Z,1014.07
2018-04-27T03:33:30.267Z,1014.05
2018-04-27T03:34:30.200Z,1014.02
2018-04-27T03:35:30.135Z,1014.10
2018-04-27T03:36:30.069Z,1014.03
2018-04-27T03:37:29.999Z,1014.03
2018-04-27T03:38:29.930Z,1014.02
2018-04-27T03:39:29.865Z,1014.01
2018-04-27T03:40:29.796Z,1014.04
2018-04-27T03:41:29.735Z,1014.02
2018-04-27T03:42:29.674Z,1014.05
2018-04-27T03:43:29.601Z,1014.08
2018-04-27T03:44:29.523Z,1014.05
2018-04-27T03:45:29.518Z,1014.03
2018-04-27T03:46:29.393Z,1014.02
2018-04-27T03:47:29.323Z,1014.02
2018-04-27T03:48:29.303Z,1014.14
2018-04-27T03:49:29.189Z,1014.13
2018-04-27T03:50:29.120Z,1014.13
2018-04-27T03:51:29.050Z,1014.14
2018-04-27T03:52:28.988Z,1014.14
2018-04-27T03:53:28.921Z,1014.15
2018-04-27T03:54:28.857Z,1014.13
2018-04-27T03:55:28.786Z,1014.12
2018-04-27T03:56:28.717Z,1014.08
2018-04-27T03:57:28.647Z,1014.17
2018-04-27T03:58:28.583Z,1014.20
2018-04-27T03:59:28.516Z,1014.20
2018-04-27T04:00:28.453Z,1014.22
2018-04-27T04:01:28.380Z,1014.18
2018-04-27T04:02:28.313Z,1014.28
2018-04-27T04:03:28.244Z,1014.26
2018-04-27T04:04:28.177Z,1014.19
2018-04-27T04:05:28.116Z,1014.25
2018-04-27T04:06:28.050Z,1014.27
2018-04-27T04:07:27.979Z,1014.27
2018-04-27T04:08:27.904Z,1014.24
2018-04-27T04:09:27.839Z,1014.29
2018-04-27T04:10:27.778Z,1014.25
2018-04-27T04:11:27.703Z,1014.24
2018-04-27T04:12:27.647Z,1014.23
2018-04-27T04:13:27.570Z,1014.30
2018-04-27T04:14:27.514Z,1014.32
2018-04-27T04:15:27.435Z,1014.32
2018-04-27T04:16:27.365Z,1014.34
2018-04-27T04:17:27.297Z,1014.34
2018-04-27T04:18:27.249Z,1014.45
2018-04-27T04:19:27.168Z,1014.37
2018-04-27T04:20:27.097Z,1014.36
2018-04-27T04:21:27.036Z,1014.35
2018-04-27T04:22:26.962Z,1014.40
2018-04-27T04:23:26.895Z,1014.44
2018-04-27T04:24:26.826Z,1014.44
2018-04-27T04:25:26.765Z,1014.40
2018-04-27T04:26:26.697Z,1014.42
2018-04-27T04:27:26.624Z,1014.41
2018-04-27T04:28:26.564Z,1014.45
2018-04-27T04:29:26.495Z,1014.49
2018-04-27T04:30:26.438Z,1014.43
2018-04-27T04:31:26.358Z,1014.48
2018-04-27T04:32:26.343Z,1014.50
2018-04-27T04:33:26.220Z,1014.46
2018-04-27T04:34:26.155Z,1014.45
2018-04-27T04:35:26.083Z,1014.48
2018-04-27T04:36:26.022Z,1014.47
2018-04-27T04:37:25.956Z,1014.52
2018-04-27T04:38:25.910Z,1014.52
2018-04-27T04:39:25.823Z,1014.54
2018-04-27T04:40:25.751Z,1014.53
2018-04-27T04:41:25.691Z,1014.54
2018-04-27T04:42:25.618Z,1014.48
2018-04-27T04:43:25.554Z,1014.51
2018-04-27T04:44:25.484Z,1014.56
2018-04-27T04:45:25.419Z,1014.55
2018-04-27T04:46:25.354Z,1014.51
2018-04-27T04:47:25.288Z,1014.53
2018-04-27T04:48:25.217Z,1014.52
2018-04-27T04:49:25.158Z,1014.50
2018-04-27T04:50:25.082Z,1014.51
2018-04-27T04:51:25.017Z,1014.57
2018-04-27T04:52:24.968Z,1014.55
2018-04-27T04:53:24.880Z,1014.59
2018-04-27T04:54:24.811Z,1014.57
2018-04-27T04:55:24.746Z,1014.60
2018-04-27T04:56:24.681Z,1014.65
2018-04-27T04:57:24.616Z,1014.62
2018-04-27T04:58:24.550Z,1014.63
2018-04-27T04:59:24.478Z,1014.65
2018-04-27T05:00:24.411Z,1014.69
2018-04-27T05:01:24.341Z,1014.73
2018-04-27T05:02:24.282Z,1014.75
2018-04-27T05:03:24.214Z,1014.74
2018-04-27T05:04:24.143Z,1014.79
2018-04-27T05:05:24.081Z,1014.73
2018-04-27T05:06:24.135Z,1014.74
2018-04-27T05:07:23.944Z,1014.72
2018-04-27T05:08:23.876Z,1014.72
2018-04-27T05:09:23.811Z,1014.67
2018-04-27T05:10:23.740Z,1014.74
2018-04-27T05:11:23.679Z,1014.74
2018-04-27T05:12:23.619Z,1014.73
2018-04-27T05:13:23.553Z,1014.74
2018-04-27T05:14:23.495Z,1014.79
2018-04-27T05:15:23.438Z,1014.78
2018-04-27T05:16:23.346Z,1014.78
2018-04-27T05:17:23.278Z,1014.77
2018-04-27T05:18:23.208Z,1014.79
2018-04-27T05:19:23.173Z,1014.81
2018-04-27T05:20:23.071Z,1014.81
2018-04-27T05:21:23.005Z,1014.80
2018-04-27T05:22:22.959Z,1014.85
2018-04-27T05:23:22.884Z,1014.83
2018-04-27T05:24:22.891Z,1014.81
2018-04-27T05:25:22.757Z,1014.81
2018-04-27T05:26:22.675Z,1014.81
2018-04-27T05:27:22.618Z,1014.83
2018-04-27T05:28:22.547Z,1014.84
2018-04-27T05:29:22.494Z,1014.79
2018-04-27T05:30:22.407Z,1014.82
2018-04-27T05:31:22.343Z,1014.79
2018-04-27T05:32:22.275Z,1014.84
2018-04-27T05:33:22.208Z,1014.80
2018-04-27T05:34:22.143Z,1014.82
2018-04-27T05:35:22.083Z,1014.85
2018-04-27T05:36:22.008Z,1014.82
2018-04-27T05:37:21.943Z,1014.77
2018-04-27T05:38:21.880Z,1014.75
2018-04-27T05:39:21.815Z,1014.73
2018-04-27T05:40:21.745Z,1014.78
2018-04-27T05:41:21.674Z,1014.76
2018-04-27T05:42:21.610Z,1014.78
2018-04-27T05:43:21.553Z,1014.80
2018-04-27T05:44:21.476Z,1014.81
2018-04-27T05:45:21.409Z,1014.82
2018-04-27T05:46:21.353Z,1014.80
2018-04-27T05:47:21.287Z,1014.84
2018-04-27T05:48:21.256Z,1014.81
2018-04-27T05:49:21.146Z,1014.89
2018-04-27T05:50:21.079Z,1014.87
2018-04-27T05:51:21.013Z,1014.87
2018-04-27T05:52:20.948Z,1014.88
2018-04-27T05:53:20.883Z,1014.92
2018-04-27T05:54:20.820Z,1014.95
2018-04-27T05:55:20.751Z,1014.93
2018-04-27T05:56:20.678Z,1014.89
2018-04-27T05:57:20.623Z,1014.89
2018-04-27T05:58:20.559Z,1014.84
2018-04-27T05:59:20.524Z,1014.76
2018-04-27T06:00:20.419Z,1014.75
2018-04-27T06:01:20.358Z,1014.73
2018-04-27T06:02:20.280Z,1014.74
2018-04-27T06:03:20.218Z,1014.71
2018-04-27T06:04:20.154Z,1014.78
2018-04-27T06:05:20.087Z,1014.76
2018-04-27T06:06:20.094Z,1014.71
2018-04-27T06:07:19.969Z,1014.77
2018-04-27T06:08:19.899Z,1014.73
2018-04-27T06:09:19.839Z,1014.75
2018-04-27T06:10:19.759Z,1014.73
2018-04-27T06:11:19.702Z,1014.72
2018-04-27T06:12:19.628Z,1014.73
2018-04-27T06:13:19.565Z,1014.78
2018-04-27T06:14:19.503Z,1014.78
2018-04-27T06:15:19.431Z,1014.76
2018-04-27T06:16:19.367Z,1014.80
2018-04-27T06:17:19.302Z,1014.78
2018-04-27T06:18:19.236Z,1014.78
2018-04-27T06:19:19.173Z,1014.77
2018-04-27T06:20:19.106Z,1014.75
2018-04-27T06:21:19.038Z,1014.67
2018-04-27T06:22:18.971Z,1014.64
2018-04-27T06:23:18.907Z,1014.65
2018-04-27T06:24:18.844Z,1014.66
2018-04-27T06:25:18.778Z,1014.69
2018-04-27T06:26:18.724Z,1014.70
2018-04-27T06:27:18.658Z,1014.69
2018-04-27T06:28:18.590Z,1014.73
2018-04-27T06:29:18.516Z,1014.67
2018-04-27T06:30:18.454Z,1014.74
2018-04-27T06:31:18.404Z,1014.74
2018-04-27T06:32:18.323Z,1014.76
2018-04-27T06:33:18.256Z,1014.72
2018-04-27T06:34:18.190Z,1014.73
2018-04-27T06:35:18.118Z,1014.79
2018-04-27T06:36:18.076Z,1014.70
2018-04-27T06:37:17.990Z,1014.70
2018-04-27T06:38:17.929Z,1014.68
2018-04-27T06:39:17.898Z,1014.68
2018-04-27T06:40:17.799Z,1014.66
2018-04-27T06:41:17.737Z,1014.68
2018-04-27T06:42:17.667Z,1014.62
2018-04-27T06:43:17.615Z,1014.67
2018-04-27T06:44:17.531Z,1014.69
2018-04-27T06:45:17.472Z,1014.70
2018-04-27T06:46:17.405Z,1014.69
2018-04-27T06:47:17.345Z,1014.66
2018-04-27T06:48:17.278Z,1014.65
2018-04-27T06:49:17.210Z,1014.66
2018-04-27T06:50:17.149Z,1014.66
2018-04-27T06:51:17.084Z,1014.64
2018-04-27T06:52:17.019Z,1014.61
2018-04-27T06:53:16.955Z,1014.62
2018-04-27T06:54:16.883Z,1014.63
2018-04-27T06:55:16.826Z,1014.59
2018-04-27T06:56:16.760Z,1014.60
2018-04-27T06:57:16.695Z,1014.62
2018-04-27T06:58:16.630Z,1014.64
2018-04-27T06:59:16.653Z,1014.64
2018-04-27T07:00:16.499Z,1014.61
2018-04-27T07:01:16.435Z,1014.62
2018-04-27T07:02:16.369Z,1014.64
2018-04-27T07:03:16.305Z,1014.58
2018-04-27T07:04:16.242Z,1014.61
2018-04-27T07:05:16.265Z,1014.60
2018-04-27T07:06:16.194Z,1014.62
2018-04-27T07:07:16.046Z,1014.64
2018-04-27T07:08:15.983Z,1014.67
2018-04-27T07:09:15.914Z,1014.70
2018-04-27T07:10:15.857Z,1014.69
2018-04-27T07:11:15.791Z,1014.73
2018-04-27T07:12:15.726Z,1014.76
2018-04-27T07:13:15.664Z,1014.71
2018-04-27T07:14:15.599Z,1014.74
2018-04-27T07:15:15.533Z,1014.67
2018-04-27T07:16:15.468Z,1014.73
2018-04-27T07:17:15.402Z,1014.71
2018-04-27T07:18:15.341Z,1014.67
2018-04-27T07:19:15.281Z,1014.60
2018-04-27T07:20:15.218Z,1014.59
2018-04-27T07:21:15.150Z,1014.58
2018-04-27T07:22:15.083Z,1014.59
2018-04-27T07:23:15.024Z,1014.60
2018-04-27T07:24:14.959Z,1014.60
2018-04-27T07:25:14.892Z,1014.68
2018-04-27T07:26:14.826Z,1014.67
2018-04-27T07:27:14.770Z,1014.64
2018-04-27T07:28:14.694Z,1014.74
2018-04-27T07:29:14.638Z,1014.76
2018-04-27T07:30:14.575Z,1014.79
2018-04-27T07:31:14.513Z,1014.78
2018-04-27T07:32:14.444Z,1014.70
2018-04-27T07:33:14.385Z,1014.68
2018-04-27T07:34:14.382Z,1014.60
2018-04-27T07:35:14.260Z,1014.63
2018-04-27T07:36:14.197Z,1014.57
2018-04-27T07:37:14.136Z,1014.50
2018-04-27T07:38:14.073Z,1014.49
2018-04-27T07:39:14.012Z,1014.45
2018-04-27T07:40:13.937Z,1014.48
2018-04-27T07:41:13.877Z,1014.50
2018-04-27T07:42:13.812Z,1014.50
2018-04-27T07:43:13.752Z,1014.48
2018-04-27T07:44:13.683Z,1014.50
2018-04-27T07:45:13.634Z,1014.54
2018-04-27T07:46:13.554Z,1014.55
2018-04-27T07:47:13.492Z,1014.56
2018-04-27T07:48:13.443Z,1014.56
2018-04-27T07:49:13.362Z,1014.54
2018-04-27T07:50:13.302Z,1014.53
2018-04-27T07:51:13.239Z,1014.51
2018-04-27T07:52:13.173Z,1014.47
2018-04-27T07:53:13.110Z,1014.50
2018-04-27T07:54:13.047Z,1014.41
2018-04-27T07:55:12.987Z,1014.37
2018-04-27T07:56:12.923Z,1014.37
2018-04-27T07:57:12.860Z,1014.33
2018-04-27T07:58:12.796Z,1014.31
2018-04-27T07:59:12.729Z,1014.33
2018-04-27T08:00:12.672Z,1014.33
2018-04-27T08:01:12.600Z,1014.30
2018-04-27T08:02:12.548Z,1014.24
2018-04-27T08:03:12.479Z,1014.25
2018-04-27T08:04:12.427Z,1014.27
2018-04-27T08:05:12.350Z,1014.28
2018-04-27T08:06:12.284Z,1014.32
2018-04-27T08:07:12.261Z,1014.27
2018-04-27T08:08:12.160Z,1014.30
2018-04-27T08:09:12.094Z,1014.31
2018-04-27T08:10:12.029Z,1014.31
2018-04-27T08:11:11.972Z,1014.30
2018-04-27T08:12:11.968Z,1014.33
2018-04-27T08:13:11.840Z,1014.38
2018-04-27T08:14:11.785Z,1014.36
2018-04-27T08:15:11.723Z,1014.35
2018-04-27T08:16:11.660Z,1014.35
2018-04-27T08:17:11.590Z,1014.29
2018-04-27T08:18:11.524Z,1014.36
2018-04-27T08:19:11.463Z,1014.31
2018-04-27T08:20:11.407Z,1014.32
2018-04-27T08:21:11.334Z,1014.30
2018-04-27T08:22:11.272Z,1014.32
2018-04-27T08:23:11.211Z,1014.28
2018-04-27T08:24:11.143Z,1014.29
2018-04-27T08:25:11.100Z,1014.31
2018-04-27T08:26:11.021Z,1014.28
2018-04-27T08:27:10.955Z,1014.27
2018-04-27T08:28:10.901Z,1014.25
2018-04-27T08:29:10.835Z,1014.27
2018-04-27T08:30:10.790Z,1014.24
2018-04-27T08:31:10.707Z,1014.23
2018-04-27T08:32:10.637Z,1014.27
2018-04-27T08:33:10.575Z,1014.26
2018-04-27T08:34:10.517Z,1014.22
2018-04-27T08:35:10.448Z,1014.23
2018-04-27T08:36:10.447Z,1014.22
2018-04-27T08:37:10.322Z,1014.21
2018-04-27T08:38:10.257Z,1014.23
2018-04-27T08:39:10.218Z,1014.22
2018-04-27T08:40:10.141Z,1014.21
2018-04-27T08:41:10.073Z,1014.18
2018-04-27T08:42:10.007Z,1014.11
2018-04-27T08:43:09.950Z,1014.21
2018-04-27T08:44:09.883Z,1014.17
2018-04-27T08:45:09.818Z,1014.25
2018-04-27T08:46:09.757Z,1014.24
2018-04-27T08:47:09.697Z,1014.22
2018-04-27T08:48:09.629Z,1014.20
2018-04-27T08:49:09.567Z,1014.22
2018-04-27T08:50:09.511Z,1014.18
2018-04-27T08:51:09.444Z,1014.16
2018-04-27T08:52:09.378Z,1014.13
2018-04-27T08:53:09.317Z,1014.13
2018-04-27T08:54:09.254Z,1014.11
2018-04-27T08:55:09.193Z,1014.07
2018-04-27T08:56:09.127Z,1014.12
2018-04-27T08:57:09.067Z,1014.13
2018-04-27T08:58:09.004Z,1014.13
2018-04-27T08:59:08.938Z,1014.14
2018-04-27T09:00:08.879Z,1014.15
2018-04-27T09:01:08.819Z,1014.13
2018-04-27T09:02:08.763Z,1014.14
2018-04-27T09:03:08.711Z,1014.08
2018-04-27T09:04:08.628Z,1014.04
2018-04-27T09:05:08.561Z,1014.07
2018-04-27T09:06:08.502Z,1014.05
2018-04-27T09:07:08.438Z,1014.13
2018-04-27T09:08:08.380Z,1014.10
2018-04-27T09:09:08.312Z,1014.07
2018-04-27T09:10:08.251Z,1014.06
2018-04-27T09:11:08.188Z,1014.03
2018-04-27T09:12:08.120Z,1014.09
2018-04-27T09:13:08.063Z,1014.01
2018-04-27T09:14:08.007Z,1014.01
2018-04-27T09:15:07.937Z,1014.03
2018-04-27T09:16:07.872Z,1014.01
2018-04-27T09:17:07.900Z,1013.96
2018-04-27T09:18:07.764Z,1014.00
2018-04-27T09:19:07.682Z,1013.99
2018-04-27T09:20:07.619Z,1013.95
2018-04-27T09:21:07.558Z,1013.93
2018-04-27T09:22:07.494Z,1013.92
2018-04-27T09:23:07.433Z,1013.99
2018-04-27T09:24:07.367Z,1013.92
2018-04-27T09:25:07.311Z,1013.98
2018-04-27T09:26:07.244Z,1013.97
2018-04-27T09:27:07.179Z,1013.95
2018-04-27T09:28:07.116Z,1013.88
2018-04-27T09:29:07.056Z,1013.91
2018-04-27T09:30:07.007Z,1013.89
2018-04-27T09:31:06.933Z,1013.99
2018-04-27T09:32:06.866Z,1013.98
2018-04-27T09:33:06.801Z,1014.01
2018-04-27T09:34:06.742Z,1013.99
2018-04-27T09:35:06.685Z,1013.97
2018-04-27T09:36:06.616Z,1013.93
2018-04-27T09:37:06.550Z,1013.93
2018-04-27T09:38:06.493Z,1013.93
2018-04-27T09:39:06.427Z,1013.88
2018-04-27T09:40:06.359Z,1013.86
2018-04-27T09:41:06.333Z,1013.88
2018-04-27T09:42:06.246Z,1013.80
2018-04-27T09:43:06.176Z,1013.86
2018-04-27T09:44:06.115Z,1013.81
2018-04-27T09:45:06.053Z,1013.78
2018-04-27T09:46:05.992Z,1013.77
2018-04-27T09:47:05.925Z,1013.80
2018-04-27T09:48:05.866Z,1013.77
2018-04-27T09:49:05.798Z,1013.75
2018-04-27T09:50:05.735Z,1013.78
2018-04-27T09:51:05.670Z,1013.78
2018-04-27T09:52:05.629Z,1013.84
2018-04-27T09:53:05.549Z,1013.93
2018-04-27T09:54:05.491Z,1013.93
2018-04-27T09:55:05.427Z,1013.90
2018-04-27T09:56:05.369Z,1013.82
2018-04-27T09:57:05.305Z,1013.73
2018-04-27T09:58:05.239Z,1013.75
2018-04-27T09:59:05.172Z,1013.66
2018-04-27T10:00:05.118Z,1013.66
2018-04-27T10:01:05.062Z,1013.61
2018-04-27T10:02:04.994Z,1013.70
2018-04-27T10:03:04.928Z,1013.68
2018-04-27T10:04:04.864Z,1013.68
2018-04-27T10:05:04.810Z,1013.66
2018-04-27T10:06:04.743Z,1013.64
2018-04-27T10:07:04.683Z,1013.70
2018-04-27T10:08:04.621Z,1013.64
2018-04-27T10:09:04.564Z,1013.64
2018-04-27T10:10:04.500Z,1013.66
2018-04-27T10:11:04.435Z,1013.64
2018-04-27T10:12:04.369Z,1013.53
2018-04-27T10:13:04.307Z,1013.55
2018-04-27T10:14:04.244Z,1013.53
2018-04-27T10:15:04.263Z,1013.42
2018-04-27T10:16:04.121Z,1013.38
2018-04-27T10:17:04.055Z,1013.41
2018-04-27T10:18:04.000Z,1013.43
2018-04-27T10:19:03.941Z,1013.42
2018-04-27T10:20:03.883Z,1013.48
2018-04-27T10:21:03.813Z,1013.43
2018-04-27T10:22:03.750Z,1013.38
2018-04-27T10:23:03.697Z,1013.34
2018-04-27T10:24:03.640Z,1013.31
2018-04-27T10:25:03.571Z,1013.29
2018-04-27T10:26:03.529Z,1013.29
2018-04-27T10:27:03.446Z,1013.27
2018-04-27T10:28:03.385Z,1013.37
2018-04-27T10:29:03.357Z,1013.40
2018-04-27T10:30:03.299Z,1013.42
2018-04-27T10:31:03.279Z,1013.38
2018-04-27T10:32:03.137Z,1013.35
2018-04-27T10:33:03.082Z,1013.39
2018-04-27T10:34:03.013Z,1013.35
2018-04-27T10:35:02.947Z,1013.37
2018-04-27T10:36:02.897Z,1013.36
2018-04-27T10:37:02.831Z,1013.34
2018-04-27T10:38:02.802Z,1013.35
2018-04-27T10:39:02.702Z,1013.36
2018-04-27T10:40:02.640Z,1013.34
2018-04-27T10:41:02.581Z,1013.32
2018-04-27T10:42:02.514Z,1013.29
2018-04-27T10:43:02.510Z,1013.29
2018-04-27T10:44:02.398Z,1013.26
2018-04-27T10:45:02.339Z,1013.20
2018-04-27T10:46:02.276Z,1013.19
2018-04-27T10:47:02.216Z,1013.13
2018-04-27T10:48:02.187Z,1013.04
2018-04-27T10:49:02.092Z,1013.03
2018-04-27T10:50:02.029Z,1013.02
2018-04-27T10:51:01.965Z,1013.00
2018-04-27T10:52:01.911Z,1012.98
2018-04-27T10:53:01.848Z,1012.94
2018-04-27T10:54:01.782Z,1012.94
2018-04-27T10:55:01.720Z,1012.88
2018-04-27T10:56:01.675Z,1012.90
2018-04-27T10:57:01.598Z,1012.92
2018-04-27T10:58:01.542Z,1012.95
2018-04-27T10:59:01.491Z,1012.98
2018-04-27T11:00:01.438Z,1012.96
2018-04-27T11:01:01.356Z,1013.00
2018-04-27T11:02:01.308Z,1013.06
2018-04-27T11:03:01.249Z,1013.17
2018-04-27T11:04:01.187Z,1013.10
2018-04-27T11:05:01.108Z,1013.15
2018-04-27T11:06:01.046Z,1013.21
2018-04-27T11:07:00.990Z,1013.27
2018-04-27T11:08:00.966Z,1013.26
2018-04-27T11:09:00.871Z,1013.19
2018-04-27T11:10:00.816Z,1013.09
2018-04-27T11:11:00.828Z,1013.01
2018-04-27T11:12:00.693Z,1012.93
2018-04-27T11:13:00.630Z,1012.91
2018-04-27T11:14:09.311Z,1013.00
2018-04-27T11:15:53.880Z,1012.94
2018-04-27T11:17:01.679Z,1012.84
2018-04-27T11:18:47.112Z,1012.87
2018-04-27T11:19:54.755Z,1012.86
2018-04-27T11:21:41.608Z,1012.86
2018-04-27T11:22:41.438Z,1012.87
2018-04-27T11:24:34.766Z,1013.51
2018-04-27T11:25:34.670Z,1013.04
2018-04-27T11:27:29.978Z,1013.03
2018-04-27T11:28:29.879Z,1013.03
2018-04-27T11:29:29.817Z,1013.07
2018-04-27T11:30:29.782Z,1013.84
2018-04-27T11:31:29.704Z,1013.73
2018-04-27T11:32:29.663Z,1012.92
2018-04-27T11:33:29.592Z,1012.95
2018-04-27T11:34:29.535Z,1013.51
2018-04-27T11:35:29.481Z,1013.76
2018-04-27T11:36:29.426Z,1013.86
2018-04-27T11:37:29.391Z,1013.89
2018-04-27T11:38:29.300Z,1013.87
2018-04-27T11:39:29.255Z,1013.36
2018-04-27T11:40:29.198Z,1013.45
2018-04-27T11:41:29.147Z,1013.55
2018-04-27T11:42:29.091Z,1013.76
2018-04-27T11:43:29.027Z,1013.89
2018-04-27T11:44:28.973Z,1013.94
2018-04-27T11:45:28.916Z,1013.71
2018-04-27T11:46:28.870Z,1013.11
2018-04-27T11:47:28.813Z,1013.11
2018-04-27T11:48:28.763Z,1012.99
2018-04-27T11:49:28.709Z,1013.05
2018-04-27T11:50:28.654Z,1013.71
2018-04-27T11:51:28.604Z,1013.60
2018-04-27T11:52:28.553Z,1013.73
2018-04-27T11:53:28.498Z,1013.96
2018-04-27T11:54:28.459Z,1014.01
2018-04-27T11:55:28.394Z,1013.91
2018-04-27T11:56:28.346Z,1013.86
2018-04-27T11:57:28.290Z,1013.71
2018-04-27T11:58:28.238Z,1013.54
2018-04-27T11:59:28.188Z,1013.30
2018-04-27T12:00:28.146Z,1013.31
2018-04-27T12:01:28.086Z,1013.20
2018-04-27T12:02:28.045Z,1013.19
2018-04-27T12:03:27.987Z,1013.31
2018-04-27T12:04:27.935Z,1012.81
2018-04-27T12:05:27.890Z,1012.80
2018-04-27T12:06:27.841Z,1012.79
2018-04-27T12:07:27.788Z,1012.75
2018-04-27T12:08:27.743Z,1012.82
2018-04-27T12:09:27.686Z,1012.84